Ames, Nebraska
Current Conditions -  °F | °C
As of 12:35 AM on Wednesday 26 Nov 2014 (Local Time) from KFET Reporting Station
Moderate Rain Moderate Rain  
Wind Chill: 31°   Ceiling: 1900
Heat Index: 37°   Visibility: 7mi
Dew Point: 35°   Wind: 8mph
Humidity: 93%   Direction: 280°W
Pressure: 29.82"   Gusts: NA
Location:  41.45°N, 96.63°W
Report Text: KFET 260635Z AUTO 28007KT 7SM RA SCT013 BKN019 OVC039 03/02 A2982 RMK AO2 P0001 T00300019
Loading
Personal Weather Stations






























Interactive Weather Map New forecast layout! Learn more

10-Day Weather Forecast

Advertisements
Track Severe Weather on mobile